• Join FlightAware (Why Join?)
  • Login
  • US Flag 
04:32PM EDT


 

Airport Tracker/Info


-or-


 

Live Flight TrackerFlight Track Log ✈ SWA34 ✈ 25-Apr-2013 ✈ KORF - KATL

Flight Track Log - Related Links

Times and Time Zones

All times are in EDT time to prevent confusion due to time zone crossing. See the SWA34 flight status page for this flight to view local times or setup timezone preferences in your user account.

Time Position Orientation Groundspeed Altitude Reporting Facility
EDT Latitude Longitude Course Direction KTS MPH feet Rate Location/Type
10:35AM 36.9350 -76.1636 35° Northeast 192 221 2,000  Level Washington Center
10:36AM 36.9764 -76.2003 325° Northwest 249 287 3,900 960 Climbing Washington Center
10:38AM 36.9739 -76.2939 268° West 257 296 4,000 60 Climbing Washington Center
10:38AM 36.9739 -76.3172 270° West 259 298 4,000 2,820 Level Washington Center
10:39AM 36.9714 -76.3797 267° West 252 290 6,900 3,600 Climbing Washington Center
10:40AM 36.9539 -76.4625 255° West 253 291 10,400 2,700 Climbing Washington Center
10:41AM 36.9117 -76.5608 242° Southwest 287 330 13,000 2,700 Climbing Washington Center
10:42AM 36.8711 -76.6564 242° Southwest 300 345 16,500 2,700 Climbing Washington Center
10:43AM 36.8264 -76.7544 240° Southwest 313 360 18,500 2,280 Climbing Washington Center
10:44AM 36.7794 -76.8678 243° Southwest 325 374 21,100 2,400 Climbing Washington Center
10:45AM 36.7344 -76.9628 239° Southwest 347 399 23,300 2,100 Climbing Washington Center
10:46AM 36.6853 -77.0733 241° Southwest 347 399 25,300 1,920 Climbing Washington Center
10:47AM 36.6358 -77.1811 240° Southwest 354 407 27,200 2,220 Climbing Washington Center
10:48AM 36.5864 -77.2889 240° Southwest 359 413 29,800 2,100 Climbing Washington Center
10:49AM 36.5369 -77.3911 239° Southwest 359 413 31,500 1,620 Climbing Washington Center
10:50AM 36.4625 -77.4747 222° Southwest 359 413 33,100 1,200 Climbing Washington Center
10:51AM 36.3903 -77.5531 221° Southwest 349 402 34,000 420 Climbing Washington Center
10:52AM 36.3078 -77.6308 217° Southwest 363 418 34,000 180 Level Washington Center
10:53AM 36.2311 -77.7111 220° Southwest 368 423 34,400 840 Climbing Washington Center
10:54AM 36.1525 -77.7889 219° Southwest 368 423 35,700 780 Climbing Washington Center
10:55AM 36.0761 -77.8664 219° Southwest 363 418 36,000 120 Climbing Washington Center
10:56AM 35.9994 -77.9439 219° Southwest 356 410 36,000  Level Washington Center
10:57AM 35.9208 -78.0208 218° Southwest 361 415 36,000  Level Washington Center
10:58AM 35.8439 -78.0981 219° Southwest 361 415 36,000  Level Washington Center
10:59AM 35.7653 -78.1750 218° Southwest 361 415 36,000  Level Washington Center
11:00AM 35.6883 -78.2517 219° Southwest 361 415 36,000  Level Washington Center
11:01AM 35.6117 -78.3258 218° Southwest 361 415 36,000  Level Washington Center
11:02AM 35.5303 -78.4072 219° Southwest 361 415 36,000  Level Washington Center
11:03AM 35.4514 -78.4833 218° Southwest 366 421 36,000  Level Washington Center
11:04AM 35.3658 -78.5694 219° Southwest 366 421 36,000  Level Washington Center
11:05AM 35.2847 -78.6453 217° Southwest 372 428 36,000  Level Washington Center
11:06AM 35.2075 -78.7239 220° Southwest 372 428 36,000  Level Washington Center
11:07AM 35.1261 -78.8019 218° Southwest 367 422 36,000  Level Washington Center
11:08AM 35.0467 -78.8800 219° Southwest 367 422 36,000  Level Washington Center
11:10AM 34.9014 -79.0175 218° Southwest 372 428 36,000  Level Jacksonville Center
11:11AM 34.8222 -79.0942 218° Southwest 372 428 36,000  Level Jacksonville Center
11:12AM 34.7392 -79.1711 217° Southwest 372 428 36,000  Level Jacksonville Center
11:13AM 34.6600 -79.2503 219° Southwest 372 428 36,000  Level Jacksonville Center
11:14AM 34.5789 -79.3294 219° Southwest 372 428 36,000  Level Jacksonville Center
11:15AM 34.5058 -79.4031 220° Southwest 372 428 36,000  Level Jacksonville Center
11:16AM 34.4164 -79.4847 217° Southwest 372 428 36,000  Level Jacksonville Center
11:17AM 34.3328 -79.5608 217° Southwest 377 434 36,000  Level Jacksonville Center
11:18AM 34.2514 -79.6394 219° Southwest 377 434 36,000  Level Jacksonville Center
11:19AM 34.2139 -79.7286 243° Southwest 343 395 36,000  Level Jacksonville Center
11:20AM 34.1875 -79.8400 254° West 343 395 36,000  Level Jacksonville Center
11:21AM 34.1589 -79.9514 253° West 348 400 36,000  Level Jacksonville Center
11:22AM 34.1281 -80.0653 252° West 353 406 36,000  Level Jacksonville Center
11:23AM 34.0972 -80.1742 251° West 353 406 36,000  Level Jacksonville Center
11:24AM 34.0683 -80.2878 253° West 353 406 36,000  Level Jacksonville Center
11:25AM 34.0372 -80.3992 251° West 353 406 36,000  Level Jacksonville Center
11:26AM 34.0081 -80.5100 252° West 353 406 36,000  Level Jacksonville Center
11:27AM 33.9786 -80.6211 252° West 348 400 36,000  Level Jacksonville Center
11:28AM 33.9472 -80.7347 252° West 348 400 36,000  Level Jacksonville Center
11:29AM 33.9158 -80.8481 252° West 353 406 36,000  Level Jacksonville Center
11:30AM 33.8861 -80.9564 252° West 348 400 36,000  Level Jacksonville Center
11:31AM 33.8506 -81.0769 250° West 348 400 36,000  Level Jacksonville Center
11:33AM 33.7844 -81.2994 250° West 349 402 36,000  Level Atlanta Center
11:34AM 33.7494 -81.4081 249° West 349 402 36,000  Level Atlanta Center
11:35AM 33.7183 -81.5214 252° West 349 402 36,000  Level Atlanta Center
11:36AM 33.6831 -81.6297 249° West 349 402 36,000  Level Atlanta Center
11:37AM 33.6497 -81.7406 250° West 349 402 36,000  Level Atlanta Center
11:38AM 33.6183 -81.8536 252° West 349 402 36,000 -120 Level Atlanta Center
11:39AM 33.5847 -81.9617 250° West 349 402 35,800 -660 Descending Atlanta Center
11:40AM 33.5511 -82.0722 250° West 349 402 34,700 -1,080 Descending Atlanta Center
11:41AM 33.5172 -82.1825 250° West 349 402 33,700 -900 Descending Atlanta Center
11:42AM 33.4961 -82.3000 258° West 349 402 32,900 -900 Descending Atlanta Center
11:43AM 33.4789 -82.4175 260° West 360 414 32,000 -1,020 Descending Atlanta Center
11:44AM 33.4700 -82.5397 265° West 368 423 30,900 -1,020 Descending Atlanta Center
11:45AM 33.4525 -82.6619 260° West 370 426 30,000 -900 Descending Atlanta Center
11:46AM 33.4475 -82.7839 267° West 370 426 29,100 -900 Descending Atlanta Center
11:47AM 33.4342 -82.9111 263° West 375 432 28,200 -2,040 Descending Atlanta Center
11:48AM 33.4228 -83.0358 264° West 381 438 25,100 -3,000 Descending Atlanta Center
11:49AM 33.4092 -83.1628 263° West 391 450 22,200 -2,880 Descending Atlanta Center
11:50AM 33.3975 -83.2850 264° West 384 442 19,400 -2,460 Descending Atlanta Center
11:51AM 33.3897 -83.3894 265° West 368 423 17,300 -2,640 Descending Atlanta Center
11:52AM 33.3778 -83.5039 263° West 368 423 14,200 -2,160 Descending Atlanta Center
11:53AM 33.3667 -83.6667 265° West 285 328 12,000 -1,140 Descending Atlanta TRACON
11:54AM 33.3500 -83.7500 257° West 261 300 11,400 -1,140 Descending Atlanta TRACON
11:55AM 33.3500 -83.8500 270° West 254 292 9,800 -1,500 Descending Atlanta TRACON
11:56AM 33.3411 -83.8822 252° West 259 298 9,200 -1,260 Descending Atlanta Center
11:57AM 33.3331 -83.9642 263° West 254 292 8,000 -1,200 Descending Atlanta Center
11:58AM 33.3767 -84.0239 311° West 232 267 6,900 -1,380 Descending Atlanta Center
11:59AM 33.4372 -84.0711 327° Northwest 249 287 5,300 -1,380 Descending Atlanta Center
12:00PM 33.5000 -84.1186 328° Northwest 257 296 4,200 -1,080 Descending Atlanta Center
12:00PM 33.5333 -84.1333 340° North 259 298 3,700 -900 Descending Atlanta TRACON
12:01PM 33.5833 -84.1833 320° Northwest 244 281 2,900 -360 Descending Atlanta TRACON
12:02PM 33.6167 -84.2333 309° West 184 212 3,000  Climbing Atlanta TRACON
12:03PM 33.6333 -84.3000 287° West 175 201 3,000 -420 Level Atlanta TRACON
12:04PM 33.6333 -84.3500 270° West 157 181 2,200 -780 Descending Atlanta TRACON
12:05PM 33.6333 -84.4000 270° West 132 152 1,500 -720 Descending Atlanta TRACON
12:07PM 33.6367 -84.4279 270° West  Level Estimated
12:14PM 33.6367 -84.4279 64° Northeast  Level Estimated